createdAt,value
2023-04-24T00:00:21.882Z,98661.91
2023-04-24T00:02:50.046Z,98659.53
2023-04-24T00:05:18.852Z,98655.19
2023-04-24T00:07:47.001Z,98658.84
2023-04-24T00:10:14.899Z,98654.56
2023-04-24T00:12:43.000Z,98653.22
2023-04-24T00:15:12.713Z,98646.06
2023-04-24T00:17:40.766Z,98647.91
2023-04-24T00:20:09.290Z,98629.97
2023-04-24T00:22:37.618Z,98638.63
2023-04-24T00:25:06.880Z,98638.31
2023-04-24T00:27:36.301Z,98637.13
2023-04-24T00:30:05.488Z,98629.00
2023-04-24T00:32:33.435Z,98631.16
2023-04-24T00:35:01.705Z,98635.63
2023-04-24T00:37:29.956Z,98628.97
2023-04-24T00:39:58.358Z,98630.94
2023-04-24T00:42:26.458Z,98629.63
2023-04-24T00:44:54.966Z,98625.78
2023-04-24T00:47:24.990Z,98625.78
2023-04-24T00:49:53.312Z,98629.75
2023-04-24T00:52:21.870Z,98626.91
2023-04-24T00:54:49.753Z,98622.91
2023-04-24T00:57:18.628Z,98626.06
2023-04-24T00:59:47.563Z,98623.06
2023-04-24T01:02:16.851Z,98629.81
2023-04-24T01:04:45.117Z,98633.94
2023-04-24T01:07:14.931Z,98628.44
2023-04-24T01:09:43.439Z,98628.78
2023-04-24T01:12:11.606Z,98630.41
2023-04-24T01:19:32.105Z,98632.97
2023-04-24T01:22:02.985Z,98637.88
2023-04-24T01:24:31.133Z,98635.34
2023-04-24T01:27:00.425Z,98642.00
2023-04-24T01:29:28.478Z,98645.56
2023-04-24T01:31:56.975Z,98639.13
2023-04-24T01:34:25.202Z,98628.91
2023-04-24T01:36:53.470Z,98631.59
2023-04-24T01:39:26.730Z,98632.78
2023-04-24T01:41:57.008Z,98624.31
2023-04-24T01:44:25.238Z,98628.34
2023-04-24T01:46:55.350Z,98625.84
2023-04-24T01:49:24.149Z,98624.66
2023-04-24T01:51:52.499Z,98618.50
2023-04-24T01:54:20.998Z,98625.69
2023-04-24T01:56:49.596Z,98623.19
2023-04-24T01:59:19.630Z,98623.81
2023-04-24T02:01:47.662Z,98619.97
2023-04-24T02:04:16.526Z,98618.47
2023-04-24T02:06:44.606Z,98614.97
2023-04-24T02:09:12.591Z,98617.94
2023-04-24T02:11:40.737Z,98613.25
2023-04-24T02:14:08.700Z,98614.06
2023-04-24T02:17:08.110Z,98609.22
2023-04-24T02:19:38.562Z,98612.16
2023-04-24T02:22:06.511Z,98599.88
2023-04-24T02:24:36.123Z,98604.81
2023-04-24T02:27:04.601Z,98606.44
2023-04-24T02:29:32.811Z,98605.38
2023-04-24T02:32:01.132Z,98601.06
2023-04-24T02:34:29.155Z,98598.13
2023-04-24T02:36:57.028Z,98596.16
2023-04-24T02:39:25.212Z,98597.28
2023-04-24T02:41:54.431Z,98587.97
2023-04-24T02:44:23.638Z,98581.84
2023-04-24T02:46:52.242Z,98593.50
2023-04-24T02:49:20.326Z,98594.09
2023-04-24T02:51:48.446Z,98587.16
2023-04-24T02:54:16.631Z,98589.81
2023-04-24T02:56:44.742Z,98594.41
2023-04-24T02:59:12.914Z,98590.09
2023-04-24T03:01:41.137Z,98593.41
2023-04-24T03:04:09.676Z,98590.44
2023-04-24T03:06:37.936Z,98589.81
2023-04-24T03:09:06.425Z,98583.34
2023-04-24T03:11:34.485Z,98591.13
2023-04-24T03:14:02.451Z,98587.81
2023-04-24T03:16:30.747Z,98583.03
2023-04-24T03:18:58.947Z,98589.47
2023-04-24T03:21:31.880Z,98587.50
2023-04-24T03:24:00.901Z,98582.56
2023-04-24T03:26:28.945Z,98582.41
2023-04-24T03:29:20.468Z,98576.78
2023-04-24T03:31:48.833Z,98581.47
2023-04-24T03:34:18.012Z,98586.63
2023-04-24T03:36:48.690Z,98583.81
2023-04-24T03:39:16.868Z,98588.16
2023-04-24T03:41:52.796Z,98583.97
2023-04-24T03:44:25.666Z,98583.28
2023-04-24T03:46:53.882Z,98585.94
2023-04-24T03:49:24.025Z,98587.91
2023-04-24T03:51:53.333Z,98580.13
2023-04-24T03:54:27.755Z,98580.44
2023-04-24T03:56:55.955Z,98585.38
2023-04-24T03:59:25.784Z,98585.53
2023-04-24T04:02:08.909Z,98582.72
2023-04-24T04:04:37.174Z,98588.72
2023-04-24T04:07:06.393Z,98589.69
2023-04-24T04:09:35.133Z,98585.44
2023-04-24T04:12:03.589Z,98590.41
2023-04-24T04:14:34.005Z,98590.94
2023-04-24T04:17:02.202Z,98595.81
2023-04-24T04:19:30.659Z,98588.38
2023-04-24T04:21:59.053Z,98595.34
2023-04-24T04:24:42.576Z,98590.53
2023-04-24T04:27:12.116Z,98597.34
2023-04-24T04:30:05.833Z,98593.22
2023-04-24T04:32:42.659Z,98595.31
2023-04-24T04:35:11.458Z,98594.81
2023-04-24T04:37:39.781Z,98592.91
2023-04-24T04:40:26.369Z,98593.63
2023-04-24T04:42:59.949Z,98596.50
2023-04-24T04:45:33.819Z,98593.72
2023-04-24T04:48:20.648Z,98594.53
2023-04-24T04:50:49.038Z,98588.75
2023-04-24T04:53:19.185Z,98590.13
2023-04-24T04:55:48.563Z,98587.09
2023-04-24T04:58:18.433Z,98582.63
2023-04-24T05:00:47.980Z,98582.13
2023-04-24T05:03:28.382Z,98580.84
2023-04-24T05:06:03.237Z,98579.09
2023-04-24T05:08:34.792Z,98577.06
2023-04-24T05:11:04.389Z,98573.03
2023-04-24T05:13:40.359Z,98575.06
2023-04-24T05:16:20.884Z,98580.28
2023-04-24T05:18:50.724Z,98579.78
2023-04-24T05:21:23.402Z,98593.53
2023-04-24T05:23:53.579Z,98582.13
2023-04-24T05:26:41.824Z,98572.09
2023-04-24T05:29:11.130Z,98575.25
2023-04-24T05:31:39.045Z,98568.19
2023-04-24T05:34:07.760Z,98561.00
2023-04-24T05:36:40.627Z,98557.22
2023-04-24T05:39:09.292Z,98555.66
2023-04-24T05:41:37.596Z,98561.69
2023-04-24T05:44:06.732Z,98560.66
2023-04-24T05:46:35.141Z,98563.88
2023-04-24T05:49:03.973Z,98561.97
2023-04-24T05:51:33.978Z,98557.72
2023-04-24T05:54:04.349Z,98562.84
2023-04-24T05:56:32.838Z,98557.97
2023-04-24T05:59:03.276Z,98553.13
2023-04-24T06:01:32.821Z,98546.50
2023-04-24T06:04:10.116Z,98550.75
2023-04-24T06:06:38.596Z,98543.19
2023-04-24T06:09:06.978Z,98542.28
2023-04-24T06:11:36.126Z,98539.66
2023-04-24T06:14:05.662Z,98540.88
2023-04-24T06:16:40.266Z,98533.25
2023-04-24T06:19:19.546Z,98534.28
2023-04-24T06:21:48.953Z,98531.09
2023-04-24T06:24:17.737Z,98530.28
2023-04-24T06:26:46.309Z,98527.81
2023-04-24T06:29:14.418Z,98523.72
2023-04-24T06:31:42.604Z,98522.53
2023-04-24T06:34:12.253Z,98521.50
2023-04-24T06:36:40.489Z,98511.53
2023-04-24T06:39:08.503Z,98516.00
2023-04-24T06:41:36.888Z,98515.19
2023-04-24T06:44:05.306Z,98515.38
2023-04-24T06:46:33.536Z,98513.75
2023-04-24T06:49:02.408Z,98515.84
2023-04-24T06:51:30.631Z,98514.56
2023-04-24T06:53:58.565Z,98510.81
2023-04-24T06:56:27.910Z,98513.72
2023-04-24T06:58:56.517Z,98512.75
2023-04-24T07:01:24.653Z,98509.25
2023-04-24T07:03:53.598Z,98520.81
2023-04-24T07:06:23.840Z,98505.28
2023-04-24T07:08:51.848Z,98506.06
2023-04-24T07:11:20.044Z,98501.72
2023-04-24T07:13:48.869Z,98511.59
2023-04-24T07:16:17.187Z,98504.13
2023-04-24T07:18:45.711Z,98506.66
2023-04-24T07:21:14.269Z,98492.47
2023-04-24T07:23:42.574Z,98492.47
2023-04-24T07:26:11.311Z,98493.94
2023-04-24T07:28:39.285Z,98490.00
2023-04-24T07:31:08.252Z,98491.28
2023-04-24T07:33:37.608Z,98489.16
2023-04-24T07:36:06.279Z,98484.06
2023-04-24T07:38:34.295Z,98491.03
2023-04-24T07:41:02.570Z,98490.81
2023-04-24T07:43:30.969Z,98490.28
2023-04-24T07:45:59.006Z,98482.72
2023-04-24T07:48:28.855Z,98478.34
2023-04-24T07:50:57.123Z,98477.34
2023-04-24T07:53:25.270Z,98476.09
2023-04-24T07:55:53.499Z,98477.28
2023-04-24T07:58:21.983Z,98476.84
2023-04-24T08:00:50.040Z,98472.69
2023-04-24T08:03:20.907Z,98460.59
2023-04-24T08:05:49.256Z,98475.97
2023-04-24T08:08:17.266Z,98477.03
2023-04-24T08:10:45.588Z,98470.13
2023-04-24T08:13:13.718Z,98475.38
2023-04-24T08:15:41.756Z,98467.25
2023-04-24T08:18:10.258Z,98471.72
2023-04-24T08:20:38.487Z,98472.19
2023-04-24T08:23:06.488Z,98460.34
2023-04-24T08:25:36.568Z,98466.56
2023-04-24T08:28:10.139Z,98464.63
2023-04-24T08:30:39.704Z,98466.16
2023-04-24T08:33:08.334Z,98457.06
2023-04-24T08:35:36.751Z,98464.94
2023-04-24T08:38:05.175Z,98466.25
2023-04-24T08:40:36.124Z,98453.34
2023-04-24T08:43:05.195Z,98445.22
2023-04-24T08:45:34.879Z,98449.31
2023-04-24T08:48:03.727Z,98449.47
2023-04-24T08:50:32.908Z,98443.16
2023-04-24T08:53:04.449Z,98448.72
2023-04-24T08:55:34.751Z,98441.50
2023-04-24T08:58:04.124Z,98453.59
2023-04-24T09:00:33.048Z,98439.03
2023-04-24T09:03:03.764Z,98442.22
2023-04-24T09:05:32.605Z,98441.31
2023-04-24T09:08:03.143Z,98438.88
2023-04-24T09:10:31.762Z,98434.44
2023-04-24T09:13:04.223Z,98432.88
2023-04-24T09:15:32.991Z,98425.97
2023-04-24T09:18:01.232Z,98422.66
2023-04-24T09:20:29.803Z,98429.53
2023-04-24T09:23:01.135Z,98424.19
2023-04-24T09:25:39.180Z,98414.78
2023-04-24T09:28:07.722Z,98412.47
2023-04-24T09:30:35.786Z,98417.69
2023-04-24T09:33:17.398Z,98408.72
2023-04-24T09:35:53.060Z,98408.97
2023-04-24T09:38:32.432Z,98412.88
2023-04-24T09:41:08.572Z,98408.41
2023-04-24T09:43:37.095Z,98400.50
2023-04-24T09:46:11.276Z,98399.41
2023-04-24T09:48:39.613Z,98389.47
2023-04-24T09:51:11.567Z,98399.63
2023-04-24T09:53:41.306Z,98383.19
2023-04-24T09:56:14.156Z,98386.84
2023-04-24T09:58:42.769Z,98379.88
2023-04-24T10:01:10.902Z,98368.91
2023-04-24T10:03:43.238Z,98386.63
2023-04-24T10:06:14.433Z,98376.94
2023-04-24T10:08:42.517Z,98365.53
2023-04-24T10:11:12.235Z,98372.22
2023-04-24T10:13:41.532Z,98374.59
2023-04-24T10:16:10.876Z,98365.03
2023-04-24T10:18:40.243Z,98370.13
2023-04-24T10:21:08.427Z,98356.09
2023-04-24T10:23:37.257Z,98354.69
2023-04-24T10:26:05.283Z,98361.78
2023-04-24T10:28:35.350Z,98328.38
2023-04-24T10:31:04.679Z,98342.22
2023-04-24T10:33:33.455Z,98344.59
2023-04-24T10:36:02.465Z,98345.28
2023-04-24T10:38:32.299Z,98332.94
2023-04-24T10:41:18.396Z,98327.50
2023-04-24T10:43:49.983Z,98338.94
2023-04-24T10:46:21.308Z,98339.81
2023-04-24T10:48:59.417Z,98328.53
2023-04-24T10:51:46.581Z,98336.56
2023-04-24T10:54:35.870Z,98308.31
2023-04-24T10:57:25.939Z,98328.34
2023-04-24T11:00:21.916Z,98313.72
2023-04-24T11:02:52.100Z,98338.03
2023-04-24T11:05:21.986Z,98321.59
2023-04-24T11:08:30.407Z,98330.03
2023-04-24T11:10:59.657Z,98319.53
2023-04-24T11:13:56.083Z,98320.53
2023-04-24T11:16:31.605Z,98311.84
2023-04-24T11:19:12.380Z,98315.91
2023-04-24T11:21:46.138Z,98329.34
2023-04-24T11:24:27.362Z,98320.22
2023-04-24T11:26:58.620Z,98307.59
2023-04-24T11:29:56.457Z,98318.22
2023-04-24T11:32:28.678Z,98308.72
2023-04-24T11:35:09.791Z,98314.88
2023-04-24T11:37:40.797Z,98306.22
2023-04-24T11:40:13.346Z,98323.47
2023-04-24T11:42:45.241Z,98309.38
2023-04-24T11:45:16.942Z,98306.56
2023-04-24T11:47:46.503Z,98299.13
2023-04-24T11:50:17.950Z,98298.28
2023-04-24T11:52:49.154Z,98296.00
2023-04-24T11:55:17.349Z,98276.94
2023-04-24T11:57:54.217Z,98293.94
2023-04-24T12:00:32.490Z,98284.72
2023-04-24T12:03:10.174Z,98280.34
2023-04-24T12:05:40.392Z,98274.16
2023-04-24T12:08:08.647Z,98280.13
2023-04-24T12:10:37.521Z,98274.34
2023-04-24T12:13:06.559Z,98284.97
2023-04-24T12:15:34.621Z,98245.06
2023-04-24T12:18:03.181Z,98257.03
2023-04-24T12:20:33.401Z,98248.09
2023-04-24T12:23:02.890Z,98250.34
2023-04-24T12:25:33.799Z,98238.66
2023-04-24T12:28:04.691Z,98255.97
2023-04-24T12:30:50.167Z,98252.25
2023-04-24T12:33:22.575Z,98238.06
2023-04-24T12:35:57.399Z,98226.31
2023-04-24T12:38:28.116Z,98225.31
2023-04-24T12:41:10.812Z,98227.00
2023-04-24T12:43:39.301Z,98208.16
2023-04-24T12:46:07.494Z,98213.59
2023-04-24T12:48:35.921Z,98216.28
2023-04-24T12:51:04.179Z,98206.59
2023-04-24T12:53:32.436Z,98225.44
2023-04-24T12:56:00.774Z,98232.00
2023-04-24T12:58:28.835Z,98221.66
2023-04-24T13:00:57.187Z,98214.69
2023-04-24T13:03:25.930Z,98206.84
2023-04-24T13:05:54.394Z,98198.41
2023-04-24T13:08:22.265Z,98177.72
2023-04-24T13:10:50.955Z,98197.03
2023-04-24T13:13:21.271Z,98198.75
2023-04-24T13:15:49.291Z,98194.38
2023-04-24T13:18:17.416Z,98196.25
2023-04-24T13:20:46.877Z,98182.88
2023-04-24T13:23:15.886Z,98184.81
2023-04-24T13:25:44.396Z,98198.66
2023-04-24T13:28:12.522Z,98187.03
2023-04-24T13:30:41.123Z,98178.59
2023-04-24T13:33:09.550Z,98183.47
2023-04-24T13:35:37.615Z,98167.63
2023-04-24T13:38:07.706Z,98167.72
2023-04-24T13:40:36.763Z,98183.91
2023-04-24T13:43:04.856Z,98190.22
2023-04-24T13:45:33.037Z,98170.63
2023-04-24T13:48:02.917Z,98183.16
2023-04-24T13:50:31.475Z,98180.59
2023-04-24T13:53:02.810Z,98174.00
2023-04-24T13:55:32.548Z,98163.22
2023-04-24T13:58:00.745Z,98181.78
2023-04-24T14:00:29.973Z,98177.88
2023-04-24T14:02:58.362Z,98165.84
2023-04-24T14:05:26.684Z,98185.56
2023-04-24T14:07:55.409Z,98180.34
2023-04-24T14:10:23.989Z,98173.03
2023-04-24T14:12:52.869Z,98164.31
2023-04-24T14:15:21.427Z,98161.69
2023-04-24T14:17:51.063Z,98162.03
2023-04-24T14:20:19.694Z,98160.19
2023-04-24T14:22:47.984Z,98158.41
2023-04-24T14:25:16.690Z,98137.47
2023-04-24T14:27:45.296Z,98143.75
2023-04-24T14:30:15.103Z,98139.00
2023-04-24T14:32:43.389Z,98134.97
2023-04-24T14:35:11.743Z,98146.41
2023-04-24T14:37:42.343Z,98149.94
2023-04-24T14:40:29.726Z,98136.63
2023-04-24T14:43:00.027Z,98132.25
2023-04-24T14:45:28.583Z,98127.50
2023-04-24T14:47:57.657Z,98132.50
2023-04-24T14:50:29.201Z,98134.97
2023-04-24T14:53:03.063Z,98133.72
2023-04-24T14:55:32.144Z,98137.03
2023-04-24T14:58:00.418Z,98141.22
2023-04-24T15:00:28.686Z,98146.50
2023-04-24T15:02:57.878Z,98144.66
2023-04-24T15:05:26.551Z,98149.91
2023-04-24T15:07:55.693Z,98150.16
2023-04-24T15:10:24.917Z,98152.28
2023-04-24T15:12:53.217Z,98156.72
2023-04-24T15:15:21.302Z,98158.19
2023-04-24T15:17:50.380Z,98153.19
2023-04-24T15:20:19.346Z,98161.50
2023-04-24T15:22:48.593Z,98152.44
2023-04-24T15:25:16.727Z,98164.75
2023-04-24T15:27:46.476Z,98147.94
2023-04-24T15:30:15.736Z,98133.97
2023-04-24T15:32:43.769Z,98138.81
2023-04-24T15:37:40.731Z,98126.50
2023-04-24T15:40:10.064Z,98124.09
2023-04-24T15:42:38.133Z,98114.78
2023-04-24T15:45:06.946Z,98108.66
2023-04-24T15:47:35.206Z,98111.69
2023-04-24T15:50:05.110Z,98102.72
2023-04-24T15:52:33.526Z,98109.78
2023-04-24T15:55:01.477Z,98124.00
2023-04-24T15:57:30.068Z,98133.81
2023-04-24T15:59:58.415Z,98120.91
2023-04-24T16:02:27.310Z,98126.00
2023-04-24T16:04:55.598Z,98133.19
2023-04-24T16:07:24.362Z,98131.06
2023-04-24T16:09:52.576Z,98125.69
2023-04-24T16:12:21.922Z,98128.16
2023-04-24T16:14:49.979Z,98142.25
2023-04-24T16:17:18.567Z,98136.78
2023-04-24T16:19:46.956Z,98132.59
2023-04-24T16:22:15.063Z,98132.94
2023-04-24T16:24:43.971Z,98127.72
2023-04-24T16:27:12.176Z,98139.44
2023-04-24T16:29:40.266Z,98145.53
2023-04-24T16:32:09.440Z,98142.66
2023-04-24T16:34:37.812Z,98144.38
2023-04-24T16:37:07.037Z,98135.94
2023-04-24T16:39:35.963Z,98143.25
2023-04-24T16:42:04.507Z,98147.97
2023-04-24T16:44:32.650Z,98149.34
2023-04-24T16:47:00.882Z,98143.97
2023-04-24T16:49:31.211Z,98149.69
2023-04-24T16:52:00.846Z,98150.50
2023-04-24T16:54:30.626Z,98145.41
2023-04-24T16:56:58.716Z,98148.66
2023-04-24T16:59:27.293Z,98148.63
2023-04-24T17:01:55.860Z,98144.97
2023-04-24T17:04:23.945Z,98138.75
2023-04-24T17:06:52.293Z,98151.06
2023-04-24T17:09:21.043Z,98160.94
2023-04-24T17:11:49.356Z,98160.06
2023-04-24T17:14:17.821Z,98150.03
2023-04-24T17:16:46.286Z,98151.06
2023-04-24T17:19:15.516Z,98155.69
2023-04-24T17:21:43.809Z,98149.00
2023-04-24T17:24:12.420Z,98165.03
2023-04-24T17:26:40.766Z,98163.97
2023-04-24T17:29:09.600Z,98168.63
2023-04-24T17:31:38.003Z,98162.91
2023-04-24T17:34:07.576Z,98167.06
2023-04-24T17:36:36.221Z,98170.00
2023-04-24T17:39:04.974Z,98175.03
2023-04-24T17:41:34.380Z,98170.81
2023-04-24T17:44:02.810Z,98183.50
2023-04-24T17:46:31.436Z,98178.75
2023-04-24T17:48:59.730Z,98177.91
2023-04-24T17:51:28.254Z,98178.53
2023-04-24T17:53:59.211Z,98184.94
2023-04-24T17:56:27.413Z,98180.59
2023-04-24T17:58:57.155Z,98181.91
2023-04-24T18:01:29.159Z,98193.84
2023-04-24T18:03:57.841Z,98193.88
2023-04-24T18:06:26.840Z,98194.03
2023-04-24T18:08:54.816Z,98209.31
2023-04-24T18:11:23.329Z,98205.81
2023-04-24T18:13:51.644Z,98214.50
2023-04-24T18:16:19.968Z,98233.91
2023-04-24T18:18:48.324Z,98244.25
2023-04-24T18:21:17.435Z,98243.59
2023-04-24T18:23:46.338Z,98236.56
2023-04-24T18:26:19.083Z,98229.75
2023-04-24T18:28:48.030Z,98218.91
2023-04-24T18:31:16.355Z,98217.63
2023-04-24T18:33:44.750Z,98219.88
2023-04-24T18:36:12.890Z,98225.28
2023-04-24T18:38:40.935Z,98215.59
2023-04-24T18:41:09.089Z,98219.75
2023-04-24T18:43:37.078Z,98209.66
2023-04-24T18:46:05.354Z,98215.00
2023-04-24T18:48:33.616Z,98221.25
2023-04-24T18:51:01.894Z,98225.38
2023-04-24T18:53:31.025Z,98218.81
2023-04-24T18:55:59.358Z,98216.94
2023-04-24T18:58:27.892Z,98214.25
2023-04-24T19:00:56.463Z,98216.50
2023-04-24T19:03:26.461Z,98228.34
2023-04-24T19:05:54.509Z,98231.84
2023-04-24T19:08:23.091Z,98241.34
2023-04-24T19:10:52.186Z,98228.34
2023-04-24T19:13:20.504Z,98225.25
2023-04-24T19:15:48.876Z,98227.94
2023-04-24T19:18:18.241Z,98218.66
2023-04-24T19:20:46.406Z,98219.06
2023-04-24T19:23:14.953Z,98217.19
2023-04-24T19:25:43.338Z,98224.22
2023-04-24T19:28:11.679Z,98222.81
2023-04-24T19:30:40.791Z,98216.84
2023-04-24T19:33:10.477Z,98216.84
2023-04-24T19:35:39.381Z,98210.25
2023-04-24T19:38:07.666Z,98218.09
2023-04-24T19:40:36.077Z,98216.84
2023-04-24T19:43:04.293Z,98212.94
2023-04-24T19:45:32.729Z,98215.41
2023-04-24T19:48:01.581Z,98221.38
2023-04-24T19:50:31.404Z,98219.31
2023-04-24T19:52:59.570Z,98229.81
2023-04-24T19:55:27.899Z,98229.19
2023-04-24T19:57:56.493Z,98237.63
2023-04-24T20:00:25.030Z,98227.28
2023-04-24T20:02:54.328Z,98233.03
2023-04-24T20:05:22.761Z,98246.22
2023-04-24T20:07:51.826Z,98249.41
2023-04-24T20:10:19.999Z,98259.38
2023-04-24T20:12:48.181Z,98256.34
2023-04-24T20:15:16.797Z,98257.78
2023-04-24T20:17:46.112Z,98257.56
2023-04-24T20:20:14.368Z,98256.50
2023-04-24T20:22:42.655Z,98251.16
2023-04-24T20:25:13.595Z,98253.47
2023-04-24T20:27:42.114Z,98257.16
2023-04-24T20:30:13.281Z,98260.84
2023-04-24T20:32:45.685Z,98262.28
2023-04-24T20:35:13.994Z,98267.59
2023-04-24T20:37:42.523Z,98262.34
2023-04-24T20:40:12.241Z,98273.44
2023-04-24T20:42:40.836Z,98276.09
2023-04-24T20:45:10.453Z,98276.19
2023-04-24T20:47:38.987Z,98273.03
2023-04-24T20:50:08.542Z,98277.56
2023-04-24T20:52:36.819Z,98289.19
2023-04-24T20:55:05.771Z,98273.66
2023-04-24T20:57:34.098Z,98271.06
2023-04-24T21:00:04.294Z,98270.81
2023-04-24T21:02:32.634Z,98265.22
2023-04-24T21:05:00.934Z,98268.56
2023-04-24T21:07:28.866Z,98265.13
2023-04-24T21:09:57.247Z,98260.06
2023-04-24T21:12:25.402Z,98255.25
2023-04-24T21:14:53.671Z,98258.81
2023-04-24T21:17:22.026Z,98254.91
2023-04-24T21:19:50.487Z,98262.34
2023-04-24T21:22:19.115Z,98259.03
2023-04-24T21:24:47.286Z,98258.41
2023-04-24T21:27:15.236Z,98261.28
2023-04-24T21:29:43.201Z,98261.09
2023-04-24T21:32:11.842Z,98258.81
2023-04-24T21:34:40.051Z,98263.97
2023-04-24T21:37:07.977Z,98263.72
2023-04-24T21:39:36.317Z,98257.53
2023-04-24T21:42:04.584Z,98264.47
2023-04-24T21:44:32.800Z,98270.44
2023-04-24T21:47:01.228Z,98265.84
2023-04-24T21:49:29.259Z,98271.81
2023-04-24T21:51:57.261Z,98264.78
2023-04-24T21:54:25.478Z,98266.00
2023-04-24T21:56:53.721Z,98271.34
2023-04-24T21:59:21.896Z,98268.78
2023-04-24T22:01:49.904Z,98270.81
2023-04-24T22:04:19.140Z,98267.91
2023-04-24T22:06:47.309Z,98260.09
2023-04-24T22:09:15.872Z,98270.34
2023-04-24T22:11:44.134Z,98273.09
2023-04-24T22:14:12.247Z,98270.41
2023-04-24T22:16:43.461Z,98268.56
2023-04-24T22:19:12.264Z,98267.25
2023-04-24T22:21:41.941Z,98275.19
2023-04-24T22:24:10.291Z,98261.44
2023-04-24T22:26:38.465Z,98258.50
2023-04-24T22:29:06.796Z,98256.47
2023-04-24T22:31:35.398Z,98257.72
2023-04-24T22:34:03.632Z,98252.72
2023-04-24T22:36:32.157Z,98254.97
2023-04-24T22:39:00.778Z,98258.41
2023-04-24T22:41:28.783Z,98252.19
2023-04-24T22:43:57.324Z,98250.22
2023-04-24T22:46:25.422Z,98247.06
2023-04-24T22:48:53.636Z,98239.59
2023-04-24T22:51:21.696Z,98229.06
2023-04-24T22:53:50.143Z,98229.47
2023-04-24T22:56:18.500Z,98227.31
2023-04-24T22:58:46.939Z,98222.72
2023-04-24T23:01:15.134Z,98213.63
2023-04-24T23:03:43.699Z,98218.91
2023-04-24T23:06:12.020Z,98211.94
2023-04-24T23:08:41.455Z,98210.47
2023-04-24T23:11:11.466Z,98213.06
2023-04-24T23:13:40.812Z,98211.78
2023-04-24T23:16:09.066Z,98207.59
2023-04-24T23:18:37.055Z,98205.78
2023-04-24T23:21:05.462Z,98209.72
2023-04-24T23:23:33.871Z,98210.38
2023-04-24T23:26:02.107Z,98212.44
2023-04-24T23:28:29.993Z,98210.22
2023-04-24T23:30:58.269Z,98202.34
2023-04-24T23:33:26.172Z,98201.78
2023-04-24T23:35:54.629Z,98204.16
2023-04-24T23:38:22.794Z,98201.03
2023-04-24T23:40:52.132Z,98191.84
2023-04-24T23:43:20.106Z,98193.25
2023-04-24T23:45:48.158Z,98182.94
2023-04-24T23:48:16.948Z,98190.94
2023-04-24T23:50:46.043Z,98187.16
2023-04-24T23:53:14.483Z,98196.63
2023-04-24T23:55:42.444Z,98195.59
2023-04-24T23:58:11.117Z,98190.84
